createdAt,value
2023-04-25T00:01:49.866Z,7.44
2023-04-25T00:04:18.677Z,7.38
2023-04-25T00:06:47.622Z,7.30
2023-04-25T00:09:16.428Z,7.23
2023-04-25T00:11:46.483Z,7.22
2023-04-25T00:14:15.273Z,7.23
2023-04-25T00:16:45.199Z,7.22
2023-04-25T00:19:14.723Z,7.28
2023-04-25T00:21:43.853Z,7.33
2023-04-25T00:24:12.588Z,7.33
2023-04-25T00:26:41.420Z,7.32
2023-04-25T00:29:11.518Z,7.31
2023-04-25T00:31:40.884Z,7.30
2023-04-25T00:34:10.088Z,7.30
2023-04-25T00:36:39.120Z,7.23
2023-04-25T00:39:08.011Z,7.16
2023-04-25T00:41:36.753Z,6.76
2023-04-25T00:44:08.058Z,7.01
2023-04-25T00:46:38.736Z,6.93
2023-04-25T00:49:07.826Z,6.89
2023-04-25T00:51:37.354Z,6.87
2023-04-25T00:54:06.230Z,6.88
2023-04-25T00:56:35.025Z,6.79
2023-04-25T00:59:03.909Z,6.70
2023-04-25T01:01:33.271Z,6.64
2023-04-25T01:04:04.261Z,6.61
2023-04-25T01:06:33.772Z,6.60
2023-04-25T01:09:03.781Z,6.50
2023-04-25T01:11:32.475Z,6.43
2023-04-25T01:14:01.544Z,6.41
2023-04-25T01:16:30.655Z,6.35
2023-04-25T01:18:59.705Z,6.31
2023-04-25T01:21:30.851Z,6.21
2023-04-25T01:24:00.098Z,6.15
2023-04-25T01:26:29.426Z,6.15
2023-04-25T01:28:58.847Z,6.19
2023-04-25T01:31:28.436Z,6.15
2023-04-25T01:33:57.218Z,6.10
2023-04-25T01:36:26.275Z,6.04
2023-04-25T01:38:56.724Z,5.99
2023-04-25T01:41:25.911Z,6.04
2023-04-25T01:43:54.694Z,6.07
2023-04-25T01:46:23.515Z,6.12
2023-04-25T01:48:52.287Z,6.12
2023-04-25T01:51:21.127Z,6.03
2023-04-25T01:53:50.308Z,6.01
2023-04-25T01:56:21.732Z,5.96
2023-04-25T01:58:50.672Z,5.87
2023-04-25T02:01:22.362Z,5.84
2023-04-25T02:04:07.807Z,5.84
2023-04-25T02:06:39.158Z,5.86
2023-04-25T02:09:09.363Z,5.91
2023-04-25T02:11:46.008Z,5.97
2023-04-25T02:14:29.809Z,6.09
2023-04-25T02:17:06.679Z,6.21
2023-04-25T02:19:35.706Z,6.31
2023-04-25T02:22:04.678Z,6.43
2023-04-25T02:24:34.692Z,6.55
2023-04-25T02:27:05.267Z,6.72
2023-04-25T02:29:34.066Z,6.80
2023-04-25T02:32:03.143Z,6.88
2023-04-25T02:34:31.931Z,6.94
2023-04-25T02:37:03.397Z,6.97
2023-04-25T02:39:32.230Z,6.92
2023-04-25T02:42:01.996Z,6.84
2023-04-25T02:44:33.582Z,6.71
2023-04-25T02:47:02.322Z,6.65
2023-04-25T02:49:31.082Z,6.64
2023-04-25T02:51:59.943Z,6.66
2023-04-25T02:54:28.690Z,6.70
2023-04-25T02:56:58.498Z,6.71
2023-04-25T02:59:33.120Z,6.72
2023-04-25T03:02:02.131Z,6.71
2023-04-25T03:04:31.139Z,6.69
2023-04-25T03:06:59.903Z,6.69
2023-04-25T03:09:28.709Z,6.72
2023-04-25T03:11:57.477Z,6.83
2023-04-25T03:14:26.282Z,6.87
2023-04-25T03:16:56.701Z,6.91
2023-04-25T03:19:25.576Z,6.96
2023-04-25T03:21:54.820Z,7.00
2023-04-25T03:24:23.837Z,7.03
2023-04-25T03:26:52.605Z,7.05
2023-04-25T03:29:27.415Z,7.06
2023-04-25T03:31:58.944Z,7.03
2023-04-25T03:34:28.329Z,7.00
2023-04-25T03:36:57.498Z,6.95
2023-04-25T03:39:26.350Z,6.92
2023-04-25T03:41:56.022Z,6.82
2023-04-25T03:44:26.895Z,6.67
2023-04-25T03:46:57.151Z,6.53
2023-04-25T03:49:27.084Z,6.40
2023-04-25T03:52:01.331Z,6.31
2023-04-25T03:54:33.202Z,6.17
2023-04-25T03:57:07.732Z,6.14
2023-04-25T03:59:40.672Z,6.11
2023-04-25T04:02:13.538Z,6.11
2023-04-25T04:04:45.138Z,6.09
2023-04-25T04:07:14.709Z,6.04
2023-04-25T04:09:46.241Z,6.00
2023-04-25T04:12:20.891Z,5.99
2023-04-25T04:14:49.679Z,5.98
2023-04-25T04:17:19.836Z,5.98
2023-04-25T04:19:48.629Z,6.01
2023-04-25T04:22:20.935Z,6.04
2023-04-25T04:24:51.445Z,6.06
2023-04-25T04:27:26.032Z,6.13
2023-04-25T04:30:10.608Z,6.17
2023-04-25T04:32:56.849Z,6.25
2023-04-25T04:35:25.994Z,6.29
2023-04-25T04:37:55.605Z,6.34
2023-04-25T04:40:31.484Z,6.40
2023-04-25T04:43:23.916Z,6.50
2023-04-25T04:46:05.912Z,6.68
2023-04-25T04:48:36.470Z,6.74
2023-04-25T04:51:25.504Z,6.83
2023-04-25T04:53:59.390Z,6.96
2023-04-25T04:56:52.155Z,7.03
2023-04-25T04:59:30.708Z,7.15
2023-04-25T05:02:11.165Z,7.24
2023-04-25T05:04:53.778Z,7.40
2023-04-25T05:07:41.398Z,7.51
2023-04-25T05:10:28.866Z,7.68
2023-04-25T05:13:16.666Z,7.82
2023-04-25T05:16:07.318Z,7.91
2023-04-25T05:19:11.810Z,8.04
2023-04-25T05:21:55.481Z,8.17
2023-04-25T05:24:33.540Z,8.23
2023-04-25T05:27:18.465Z,8.28
2023-04-25T05:30:09.020Z,8.29
2023-04-25T05:32:56.871Z,8.30
2023-04-25T05:35:25.879Z,8.36
2023-04-25T05:37:56.294Z,8.45
2023-04-25T05:40:37.429Z,8.54
2023-04-25T05:43:18.465Z,8.68
2023-04-25T05:46:01.962Z,8.76
2023-04-25T05:48:44.385Z,8.78
2023-04-25T05:51:35.148Z,8.75
2023-04-25T05:54:24.502Z,8.77
2023-04-25T05:56:54.594Z,8.76
2023-04-25T05:59:23.885Z,8.82
2023-04-25T06:01:54.009Z,8.92
2023-04-25T06:04:30.303Z,9.08
2023-04-25T06:07:00.136Z,9.39
2023-04-25T06:09:44.860Z,9.83
2023-04-25T06:12:13.747Z,10.13
2023-04-25T06:14:43.088Z,10.46
2023-04-25T06:17:11.835Z,10.66
2023-04-25T06:19:41.850Z,10.70
2023-04-25T06:22:11.888Z,10.59
2023-04-25T06:24:45.319Z,10.59
2023-04-25T06:27:16.920Z,10.80
2023-04-25T06:29:46.968Z,11.16
2023-04-25T06:32:16.853Z,11.19
2023-04-25T06:34:46.625Z,11.06
2023-04-25T06:37:15.534Z,11.08
2023-04-25T06:39:45.917Z,11.22
2023-04-25T06:42:17.618Z,11.49
2023-04-25T06:44:58.256Z,11.60
2023-04-25T06:47:27.129Z,11.80
2023-04-25T06:49:55.870Z,11.73
2023-04-25T06:52:25.078Z,11.68
2023-04-25T06:54:56.883Z,11.69
2023-04-25T06:57:44.236Z,11.60
2023-04-25T07:00:31.803Z,11.50
2023-04-25T07:03:01.919Z,11.31
2023-04-25T07:05:31.190Z,11.17
2023-04-25T07:08:01.239Z,11.11
2023-04-25T07:10:32.035Z,11.02
2023-04-25T07:13:01.191Z,10.91
2023-04-25T07:15:30.282Z,10.86
2023-04-25T07:18:00.568Z,10.73
2023-04-25T07:20:29.733Z,10.69
2023-04-25T07:22:59.134Z,10.75
2023-04-25T07:25:27.937Z,10.70
2023-04-25T07:27:59.021Z,10.76
2023-04-25T07:30:28.962Z,10.95
2023-04-25T07:32:57.917Z,11.20
2023-04-25T07:35:27.437Z,11.34
2023-04-25T07:37:56.205Z,11.46
2023-04-25T07:40:26.676Z,12.04
2023-04-25T07:43:01.274Z,12.23
2023-04-25T07:45:37.256Z,12.53
2023-04-25T07:48:06.766Z,12.31
2023-04-25T07:50:38.636Z,12.00
2023-04-25T07:53:07.494Z,11.94
2023-04-25T07:55:44.424Z,12.12
2023-04-25T07:58:23.068Z,12.35
2023-04-25T08:00:58.561Z,12.24
2023-04-25T08:03:48.490Z,12.43
2023-04-25T08:06:24.127Z,12.68
2023-04-25T08:09:05.082Z,13.32
2023-04-25T08:11:40.478Z,13.78
2023-04-25T08:14:13.236Z,13.67
2023-04-25T08:16:43.232Z,13.43
2023-04-25T08:19:12.516Z,13.16
2023-04-25T08:21:41.331Z,13.17
2023-04-25T08:24:14.530Z,13.02
2023-04-25T08:26:43.798Z,12.99
2023-04-25T08:29:18.625Z,12.96
2023-04-25T08:31:47.714Z,12.80
2023-04-25T08:34:17.307Z,13.05
2023-04-25T08:36:50.212Z,13.64
2023-04-25T08:39:37.367Z,13.91
2023-04-25T08:42:25.619Z,13.71
2023-04-25T08:44:56.718Z,13.47
2023-04-25T08:47:31.214Z,13.36
2023-04-25T08:50:01.864Z,12.91
2023-04-25T08:52:34.668Z,12.69
2023-04-25T08:55:05.588Z,12.94
2023-04-25T08:57:36.930Z,13.49
2023-04-25T09:00:09.205Z,13.80
2023-04-25T09:02:41.285Z,14.00
2023-04-25T09:05:11.985Z,13.90
2023-04-25T09:07:40.725Z,13.87
2023-04-25T09:10:10.805Z,13.74
2023-04-25T09:12:41.768Z,13.56
2023-04-25T09:15:20.594Z,13.43
2023-04-25T09:18:11.025Z,13.12
2023-04-25T09:21:00.634Z,13.10
2023-04-25T09:23:34.015Z,13.28
2023-04-25T09:26:02.690Z,13.53
2023-04-25T09:28:31.578Z,13.95
2023-04-25T09:31:04.994Z,13.94
2023-04-25T09:33:39.613Z,13.64
2023-04-25T09:36:12.250Z,13.27
2023-04-25T09:38:50.611Z,13.26
2023-04-25T09:41:31.360Z,13.25
2023-04-25T09:44:04.523Z,13.23
2023-04-25T09:46:39.028Z,13.30
2023-04-25T09:49:18.069Z,13.36
2023-04-25T09:52:20.920Z,13.65
2023-04-25T09:54:59.420Z,14.18
2023-04-25T09:57:34.613Z,14.20
2023-04-25T10:00:05.919Z,13.96
2023-04-25T10:02:47.480Z,13.66
2023-04-25T10:05:34.285Z,13.84
2023-04-25T10:08:05.874Z,14.42
2023-04-25T10:10:37.328Z,15.73
2023-04-25T10:13:07.856Z,15.77
2023-04-25T10:15:40.050Z,15.27
2023-04-25T10:18:10.979Z,15.09
2023-04-25T10:20:40.327Z,14.87
2023-04-25T10:23:15.904Z,15.02
2023-04-25T10:25:45.394Z,14.62
2023-04-25T10:28:14.085Z,14.40
2023-04-25T10:31:00.387Z,13.85
2023-04-25T10:33:36.435Z,13.70
2023-04-25T10:36:13.316Z,13.41
2023-04-25T10:38:42.097Z,13.62
2023-04-25T10:41:13.838Z,13.96
2023-04-25T10:43:43.649Z,13.71
2023-04-25T10:46:20.427Z,13.05
2023-04-25T10:48:52.228Z,13.01
2023-04-25T10:51:26.363Z,12.97
2023-04-25T10:54:03.180Z,12.97
2023-04-25T10:56:33.319Z,12.84
2023-04-25T10:59:11.153Z,12.61
2023-04-25T11:01:42.044Z,13.14
2023-04-25T11:04:24.368Z,13.93
2023-04-25T11:07:24.564Z,13.63
2023-04-25T11:09:53.607Z,13.04
2023-04-25T11:12:22.361Z,12.77
2023-04-25T11:14:51.061Z,13.13
2023-04-25T11:17:19.891Z,13.33
2023-04-25T11:19:51.307Z,13.35
2023-04-25T11:22:21.163Z,13.33
2023-04-25T11:24:50.205Z,13.52
2023-04-25T11:27:18.972Z,13.95
2023-04-25T11:29:49.047Z,14.07
2023-04-25T11:32:21.259Z,13.80
2023-04-25T11:34:51.669Z,13.45
2023-04-25T11:37:21.024Z,13.44
2023-04-25T11:39:50.381Z,13.32
2023-04-25T11:42:21.963Z,13.42
2023-04-25T11:44:51.035Z,13.59
2023-04-25T11:47:21.594Z,13.33
2023-04-25T11:49:55.021Z,12.93
2023-04-25T11:52:23.762Z,12.59
2023-04-25T11:54:52.485Z,12.45
2023-04-25T11:57:22.967Z,12.46
2023-04-25T11:59:51.730Z,12.70
2023-04-25T12:02:27.895Z,13.15
2023-04-25T12:05:15.975Z,12.97
2023-04-25T12:07:50.709Z,12.32
2023-04-25T12:10:20.895Z,11.82
2023-04-25T12:12:50.588Z,11.68
2023-04-25T12:15:21.108Z,11.56
2023-04-25T12:17:50.887Z,11.51
2023-04-25T12:20:24.663Z,11.17
2023-04-25T12:22:54.328Z,11.43
2023-04-25T12:25:39.599Z,11.71
2023-04-25T12:28:21.547Z,11.77
2023-04-25T12:31:01.866Z,11.86
2023-04-25T12:33:32.037Z,12.08
2023-04-25T12:36:06.404Z,12.05
2023-04-25T12:38:39.407Z,12.41
2023-04-25T12:41:08.896Z,12.72
2023-04-25T12:43:37.852Z,12.92
2023-04-25T12:46:06.716Z,13.20
2023-04-25T12:48:35.564Z,13.40
2023-04-25T12:51:05.964Z,13.56
2023-04-25T12:53:38.490Z,13.99
2023-04-25T12:56:08.238Z,14.51
2023-04-25T12:58:37.080Z,14.75
2023-04-25T13:01:06.231Z,14.15
2023-04-25T13:03:35.901Z,13.94
2023-04-25T13:06:07.137Z,13.98
2023-04-25T13:08:36.042Z,14.02
2023-04-25T13:11:05.694Z,14.12
2023-04-25T13:13:35.405Z,14.28
2023-04-25T13:16:04.394Z,14.45
2023-04-25T13:18:34.342Z,14.57
2023-04-25T13:21:03.354Z,14.45
2023-04-25T13:23:33.679Z,14.45
2023-04-25T13:26:02.881Z,14.41
2023-04-25T13:28:31.648Z,13.99
2023-04-25T13:31:00.685Z,13.52
2023-04-25T13:33:29.524Z,13.32
2023-04-25T13:35:58.558Z,13.53
2023-04-25T13:38:28.248Z,13.61
2023-04-25T13:40:58.406Z,13.40
2023-04-25T13:43:27.189Z,13.27
2023-04-25T13:45:56.006Z,13.49
2023-04-25T13:48:26.224Z,13.46
2023-04-25T13:50:54.973Z,13.35
2023-04-25T13:53:23.721Z,13.02
2023-04-25T13:55:53.309Z,12.74
2023-04-25T13:58:23.471Z,12.97
2023-04-25T14:00:52.233Z,13.11
2023-04-25T14:03:21.180Z,13.04
2023-04-25T14:05:50.209Z,12.99
2023-04-25T14:08:19.088Z,13.53
2023-04-25T14:10:47.856Z,13.62
2023-04-25T14:13:16.613Z,13.62
2023-04-25T14:15:46.896Z,14.02
2023-04-25T14:18:15.806Z,14.27
2023-04-25T14:20:44.849Z,14.21
2023-04-25T14:23:15.643Z,14.11
2023-04-25T14:25:49.381Z,13.82
2023-04-25T14:28:21.315Z,13.50
2023-04-25T14:30:53.876Z,12.86
2023-04-25T14:33:22.662Z,12.35
2023-04-25T14:35:54.201Z,11.82
2023-04-25T14:38:24.420Z,11.74
2023-04-25T14:40:54.977Z,11.49
2023-04-25T14:43:26.567Z,11.38
2023-04-25T14:45:58.417Z,11.75
2023-04-25T14:48:27.577Z,12.15
2023-04-25T14:50:57.429Z,12.32
2023-04-25T14:53:26.546Z,12.50
2023-04-25T14:55:55.494Z,12.32
2023-04-25T14:58:24.451Z,12.43
2023-04-25T15:00:53.386Z,12.56
2023-04-25T15:03:24.156Z,12.73
2023-04-25T15:05:53.035Z,12.68
2023-04-25T15:08:21.782Z,12.56
2023-04-25T15:10:51.548Z,12.48
2023-04-25T15:13:21.298Z,12.32
2023-04-25T15:15:52.340Z,12.27
2023-04-25T15:18:23.954Z,12.40
2023-04-25T15:20:53.306Z,12.54
2023-04-25T15:23:23.044Z,12.66
2023-04-25T15:25:53.896Z,12.77
2023-04-25T15:28:23.022Z,12.71
2023-04-25T15:30:51.877Z,12.63
2023-04-25T15:33:22.058Z,12.40
2023-04-25T15:35:50.876Z,12.46
2023-04-25T15:38:19.710Z,12.43
2023-04-25T15:40:48.477Z,12.26
2023-04-25T15:43:17.339Z,12.02
2023-04-25T15:45:47.054Z,11.89
2023-04-25T15:48:15.888Z,11.66
2023-04-25T15:50:46.410Z,11.51
2023-04-25T15:53:15.255Z,11.44
2023-04-25T15:55:44.628Z,11.33
2023-04-25T15:58:13.401Z,11.18
2023-04-25T16:00:42.733Z,11.10
2023-04-25T16:03:12.122Z,11.15
2023-04-25T16:05:41.127Z,11.33
2023-04-25T16:08:11.184Z,11.40
2023-04-25T16:10:40.125Z,11.52
2023-04-25T16:13:09.019Z,11.63
2023-04-25T16:15:38.223Z,11.72
2023-04-25T16:18:08.291Z,11.98
2023-04-25T16:20:37.160Z,12.06
2023-04-25T16:23:05.883Z,12.07
2023-04-25T16:25:36.050Z,12.05
2023-04-25T16:28:04.806Z,11.95
2023-04-25T16:30:33.591Z,11.84
2023-04-25T16:33:02.500Z,11.69
2023-04-25T16:38:15.138Z,11.96
2023-04-25T16:40:45.342Z,11.83
2023-04-25T16:43:14.132Z,11.96
2023-04-25T16:45:43.015Z,12.01
2023-04-25T16:48:11.898Z,12.08
2023-04-25T16:50:40.929Z,12.12
2023-04-25T16:53:09.697Z,12.08
2023-04-25T16:55:38.483Z,11.96
2023-04-25T16:58:11.256Z,11.74
2023-04-25T17:00:40.506Z,11.42
2023-04-25T17:03:09.425Z,11.28
2023-04-25T17:05:38.744Z,11.03
2023-04-25T17:08:08.336Z,10.79
2023-04-25T17:10:37.163Z,10.66
2023-04-25T17:13:07.330Z,10.45
2023-04-25T17:15:36.524Z,10.29
2023-04-25T17:18:05.541Z,10.13
2023-04-25T17:20:34.432Z,10.11
2023-04-25T17:23:03.328Z,10.08
2023-04-25T17:25:32.997Z,10.07
2023-04-25T17:28:01.826Z,10.07
2023-04-25T17:30:32.150Z,10.06
2023-04-25T17:33:01.288Z,10.01
2023-04-25T17:35:31.559Z,9.99
2023-04-25T17:38:00.439Z,9.98
2023-04-25T17:40:29.178Z,9.97
2023-04-25T17:42:57.965Z,9.97
2023-04-25T17:45:27.182Z,9.97
2023-04-25T17:47:57.751Z,9.87
2023-04-25T17:50:26.931Z,9.73
2023-04-25T17:52:55.822Z,9.63
2023-04-25T17:55:25.075Z,9.54
2023-04-25T17:57:53.825Z,9.52
2023-04-25T18:00:22.890Z,9.56
2023-04-25T18:02:52.233Z,9.58
2023-04-25T18:05:22.712Z,9.52
2023-04-25T18:07:51.516Z,9.50
2023-04-25T18:10:20.368Z,9.56
2023-04-25T18:12:50.493Z,9.46
2023-04-25T18:15:20.264Z,9.48
2023-04-25T18:20:33.847Z,9.41
2023-04-25T18:23:02.772Z,9.35
2023-04-25T18:25:31.679Z,9.36
2023-04-25T18:28:00.958Z,9.28
2023-04-25T18:30:30.330Z,9.28
2023-04-25T18:32:59.175Z,9.25
2023-04-25T18:35:28.668Z,9.19
2023-04-25T18:37:59.171Z,9.08
2023-04-25T18:40:28.007Z,8.95
2023-04-25T18:42:56.762Z,8.83
2023-04-25T18:45:25.540Z,8.72
2023-04-25T18:47:54.798Z,8.73
2023-04-25T18:50:26.395Z,8.61
2023-04-25T18:52:55.248Z,8.58
2023-04-25T18:55:25.749Z,8.53
2023-04-25T18:57:54.649Z,8.62
2023-04-25T19:00:24.848Z,8.60
2023-04-25T19:02:56.031Z,8.65
2023-04-25T19:05:24.980Z,8.62
2023-04-25T19:07:53.840Z,8.64
2023-04-25T19:10:23.998Z,8.67
2023-04-25T19:12:52.761Z,8.68
2023-04-25T19:15:21.543Z,8.67
2023-04-25T19:17:50.329Z,8.60
2023-04-25T19:20:20.783Z,8.50
2023-04-25T19:22:49.632Z,8.32
2023-04-25T19:25:18.445Z,8.10
2023-04-25T19:27:48.548Z,7.95
2023-04-25T19:30:17.464Z,7.80
2023-04-25T19:32:46.385Z,7.69
2023-04-25T19:35:15.748Z,7.56
2023-04-25T19:37:46.798Z,7.07
2023-04-25T19:40:16.520Z,7.31
2023-04-25T19:42:47.293Z,7.32
2023-04-25T19:45:16.047Z,7.32
2023-04-25T19:47:45.027Z,7.27
2023-04-25T19:50:13.946Z,7.12
2023-04-25T19:52:42.940Z,7.03
2023-04-25T19:55:12.138Z,7.07
2023-04-25T19:57:40.983Z,7.10
2023-04-25T20:00:14.437Z,7.02
2023-04-25T20:02:45.349Z,7.02
2023-04-25T20:05:15.481Z,6.99
2023-04-25T20:07:44.413Z,6.95
2023-04-25T20:10:14.172Z,6.95
2023-04-25T20:12:43.025Z,6.92
2023-04-25T20:15:13.762Z,6.88
2023-04-25T20:17:42.827Z,6.80
2023-04-25T20:20:12.838Z,6.76
2023-04-25T20:22:41.562Z,6.66
2023-04-25T20:25:12.270Z,6.57
2023-04-25T20:27:41.108Z,6.43
2023-04-25T20:30:12.564Z,6.32
2023-04-25T20:32:41.706Z,6.23
2023-04-25T20:35:11.106Z,6.18
2023-04-25T20:37:39.980Z,6.20
2023-04-25T20:40:10.132Z,6.21
2023-04-25T20:42:39.060Z,6.28
2023-04-25T20:45:13.259Z,6.22
2023-04-25T20:47:44.564Z,6.12
2023-04-25T20:50:13.519Z,6.02
2023-04-25T20:52:43.248Z,5.94
2023-04-25T20:55:13.545Z,5.83
2023-04-25T20:57:42.366Z,5.72
2023-04-25T21:00:17.865Z,5.62
2023-04-25T21:02:48.430Z,5.56
2023-04-25T21:05:17.299Z,5.53
2023-04-25T21:07:46.801Z,5.56
2023-04-25T21:10:15.944Z,5.56
2023-04-25T21:12:47.906Z,5.55
2023-04-25T21:15:20.186Z,5.57
2023-04-25T21:17:51.080Z,5.53
2023-04-25T21:20:21.587Z,5.42
2023-04-25T21:22:54.144Z,5.42
2023-04-25T21:25:29.317Z,5.47
2023-04-25T21:27:58.954Z,5.53
2023-04-25T21:30:28.273Z,5.51
2023-04-25T21:32:58.526Z,5.49
2023-04-25T21:35:27.437Z,5.50
2023-04-25T21:37:56.306Z,5.45
2023-04-25T21:40:25.177Z,5.41
2023-04-25T21:42:53.926Z,5.36
2023-04-25T21:45:22.859Z,5.39
2023-04-25T21:47:51.840Z,5.57
2023-04-25T21:50:22.358Z,5.72
2023-04-25T21:52:54.073Z,5.86
2023-04-25T21:55:23.061Z,5.88
2023-04-25T21:57:51.788Z,5.85
2023-04-25T22:00:27.519Z,5.76
2023-04-25T22:02:56.657Z,5.68
2023-04-25T22:05:28.156Z,5.76
2023-04-25T22:07:58.157Z,5.87
2023-04-25T22:10:26.950Z,5.91
2023-04-25T22:12:56.056Z,5.96
2023-04-25T22:15:24.792Z,5.88
2023-04-25T22:17:55.247Z,5.83
2023-04-25T22:20:26.391Z,5.87
2023-04-25T22:22:57.281Z,6.00
2023-04-25T22:25:27.808Z,5.92
2023-04-25T22:27:58.929Z,5.91
2023-04-25T22:30:30.695Z,5.83
2023-04-25T22:33:00.018Z,5.80
2023-04-25T22:35:28.751Z,5.77
2023-04-25T22:37:58.916Z,5.69
2023-04-25T22:40:27.772Z,5.62
2023-04-25T22:42:56.499Z,5.55
2023-04-25T22:45:25.274Z,5.50
2023-04-25T22:47:54.344Z,5.57
2023-04-25T22:50:23.231Z,5.49
2023-04-25T22:52:52.003Z,5.42
2023-04-25T22:55:22.648Z,5.49
2023-04-25T22:57:53.972Z,5.56
2023-04-25T23:00:26.224Z,5.67
2023-04-25T23:02:55.094Z,5.71
2023-04-25T23:05:24.652Z,5.66
2023-04-25T23:07:53.351Z,5.62
2023-04-25T23:10:23.472Z,5.52
2023-04-25T23:12:52.339Z,5.48
2023-04-25T23:15:21.025Z,5.40
2023-04-25T23:17:49.732Z,5.30
2023-04-25T23:20:18.690Z,5.24
2023-04-25T23:26:00.679Z,5.23
2023-04-25T23:28:35.401Z,5.16
2023-04-25T23:31:11.829Z,5.09
2023-04-25T23:33:41.917Z,5.08
2023-04-25T23:36:30.691Z,5.09
2023-04-25T23:40:21.434Z,5.07
2023-04-25T23:42:52.009Z,5.07
2023-04-25T23:45:26.971Z,5.12
2023-04-25T23:47:55.738Z,5.02
2023-04-25T23:50:59.722Z,4.86
2023-04-25T23:53:53.882Z,4.93
2023-04-25T23:56:22.874Z,4.90
2023-04-25T23:58:52.999Z,4.84
